createdAt,value
2018-10-12T00:01:13.034Z,11.20
2018-10-12T00:03:42.245Z,11.22
2018-10-12T00:06:11.515Z,11.11
2018-10-12T00:08:40.997Z,11.16
2018-10-12T00:11:10.208Z,11.28
2018-10-12T00:13:39.352Z,11.28
2018-10-12T00:16:08.525Z,11.27
2018-10-12T00:18:37.730Z,11.28
2018-10-12T00:21:06.909Z,11.34
2018-10-12T00:23:36.096Z,11.40
2018-10-12T00:26:05.328Z,11.42
2018-10-12T00:28:34.512Z,11.48
2018-10-12T00:31:03.660Z,11.44
2018-10-12T00:33:32.829Z,11.36
2018-10-12T00:36:02.094Z,11.33
2018-10-12T00:38:31.295Z,11.28
2018-10-12T00:41:00.420Z,11.37
2018-10-12T00:43:29.613Z,11.39
2018-10-12T00:45:58.821Z,11.38
2018-10-12T00:48:28.001Z,11.40
2018-10-12T00:50:57.221Z,11.51
2018-10-12T00:53:26.383Z,11.53
2018-10-12T00:55:55.509Z,11.60
2018-10-12T00:58:24.703Z,11.65
2018-10-12T01:00:53.973Z,11.59
2018-10-12T01:03:23.121Z,11.51
2018-10-12T01:05:52.296Z,11.57
2018-10-12T01:08:21.500Z,11.63
2018-10-12T01:10:50.695Z,11.59
2018-10-12T01:13:19.948Z,11.58
2018-10-12T01:15:49.163Z,11.53
2018-10-12T01:18:18.376Z,11.53
2018-10-12T01:20:47.680Z,11.45
2018-10-12T01:23:16.817Z,11.56
2018-10-12T01:25:46.016Z,11.60
2018-10-12T01:28:15.202Z,11.53
2018-10-12T01:30:44.454Z,11.52
2018-10-12T01:33:13.633Z,11.54
2018-10-12T01:35:42.850Z,11.50
2018-10-12T01:38:11.985Z,11.53
2018-10-12T01:40:41.176Z,11.50
2018-10-12T01:43:10.354Z,11.49
2018-10-12T01:45:39.563Z,11.51
2018-10-12T01:48:08.750Z,11.52
2018-10-12T01:50:37.928Z,11.51
2018-10-12T01:53:07.171Z,11.40
2018-10-12T01:55:36.385Z,11.38
2018-10-12T01:58:05.497Z,11.33
2018-10-12T02:00:34.728Z,11.30
2018-10-12T02:03:03.886Z,11.24
2018-10-12T02:05:33.158Z,11.33
2018-10-12T02:08:02.347Z,11.36
2018-10-12T02:10:31.577Z,11.40
2018-10-12T02:13:00.765Z,11.36
2018-10-12T02:15:30.038Z,11.34
2018-10-12T02:17:59.196Z,11.19
2018-10-12T02:20:28.368Z,11.13
2018-10-12T02:22:57.547Z,11.01
2018-10-12T02:25:26.692Z,10.99
2018-10-12T02:27:55.885Z,11.00
2018-10-12T02:30:25.108Z,10.99
2018-10-12T02:32:54.244Z,10.98
2018-10-12T02:35:23.482Z,10.92
2018-10-12T02:37:52.572Z,10.90
2018-10-12T02:40:21.697Z,10.91
2018-10-12T02:42:50.992Z,10.91
2018-10-12T02:45:20.174Z,10.83
2018-10-12T02:47:49.322Z,10.82
2018-10-12T02:50:18.521Z,10.88
2018-10-12T02:52:47.654Z,10.92
2018-10-12T02:55:17.047Z,10.84
2018-10-12T02:57:46.245Z,10.84
2018-10-12T03:00:15.376Z,10.70
2018-10-12T03:02:44.679Z,10.71
2018-10-12T03:05:13.797Z,10.60
2018-10-12T03:07:44.011Z,10.65
2018-10-12T03:10:13.226Z,10.68
2018-10-12T03:12:42.538Z,10.68
2018-10-12T03:15:11.816Z,10.61
2018-10-12T03:17:41.080Z,10.52
2018-10-12T03:20:10.318Z,10.55
2018-10-12T03:22:39.470Z,10.48
2018-10-12T03:25:08.789Z,10.42
2018-10-12T03:27:49.189Z,10.44
2018-10-12T03:30:18.721Z,10.45
2018-10-12T03:32:48.173Z,10.41
2018-10-12T03:35:17.551Z,10.44
2018-10-12T03:37:46.743Z,10.43
2018-10-12T03:40:15.979Z,10.41
2018-10-12T03:42:45.183Z,10.41
2018-10-12T03:45:14.463Z,10.37
2018-10-12T03:47:43.647Z,10.41
2018-10-12T03:50:12.937Z,10.44
2018-10-12T03:52:42.090Z,10.43
2018-10-12T03:55:11.443Z,10.32
2018-10-12T03:57:40.592Z,10.33
2018-10-12T04:00:09.835Z,10.30
2018-10-12T04:02:39.760Z,10.24
2018-10-12T04:05:09.073Z,10.29
2018-10-12T04:07:38.222Z,10.28
2018-10-12T04:10:07.424Z,10.26
2018-10-12T04:12:36.619Z,10.29
2018-10-12T04:15:05.826Z,10.30
2018-10-12T04:17:35.031Z,10.30
2018-10-12T04:20:04.288Z,10.31
2018-10-12T04:22:33.381Z,10.31
2018-10-12T04:25:02.550Z,10.32
2018-10-12T04:27:31.728Z,10.31
2018-10-12T04:30:00.876Z,10.31
2018-10-12T04:32:30.948Z,10.31
2018-10-12T04:35:00.061Z,10.28
2018-10-12T04:37:29.217Z,10.35
2018-10-12T04:40:02.644Z,10.30
2018-10-12T04:42:31.800Z,10.26
2018-10-12T04:45:01.004Z,10.18
2018-10-12T04:47:31.764Z,10.18
2018-10-12T04:50:01.777Z,10.21
2018-10-12T04:52:32.320Z,10.27
2018-10-12T04:55:01.525Z,10.26
2018-10-12T04:57:30.629Z,10.23
2018-10-12T04:59:59.853Z,10.22
2018-10-12T05:02:29.056Z,10.23
2018-10-12T05:04:58.280Z,10.24
2018-10-12T05:07:27.501Z,10.29
2018-10-12T05:09:56.777Z,10.19
2018-10-12T05:12:25.888Z,10.09
2018-10-12T05:14:55.041Z,10.17
2018-10-12T05:17:24.232Z,10.17
2018-10-12T05:19:53.428Z,10.23
2018-10-12T05:22:22.597Z,10.18
2018-10-12T05:24:51.746Z,10.20
2018-10-12T05:27:20.876Z,10.11
2018-10-12T05:29:50.058Z,10.13
2018-10-12T05:32:19.224Z,10.07
2018-10-12T05:34:48.384Z,10.12
2018-10-12T05:37:17.551Z,10.16
2018-10-12T05:39:46.702Z,10.17
2018-10-12T05:42:15.888Z,10.14
2018-10-12T05:44:45.019Z,10.15
2018-10-12T05:47:14.206Z,10.18
2018-10-12T05:49:56.009Z,10.14
2018-10-12T05:52:25.198Z,10.13
2018-10-12T05:54:54.504Z,10.09
2018-10-12T05:57:23.769Z,10.09
2018-10-12T05:59:53.004Z,10.21
2018-10-12T06:02:22.454Z,10.29
2018-10-12T06:04:51.685Z,10.22
2018-10-12T06:07:20.884Z,10.26
2018-10-12T06:09:50.520Z,10.20
2018-10-12T06:12:19.710Z,10.20
2018-10-12T06:14:48.924Z,10.14
2018-10-12T06:17:18.099Z,10.19
2018-10-12T06:19:47.300Z,10.22
2018-10-12T06:22:16.472Z,10.24
2018-10-12T06:24:45.596Z,10.25
2018-10-12T06:27:14.740Z,10.24
2018-10-12T06:29:43.910Z,10.31
2018-10-12T06:32:13.078Z,10.33
2018-10-12T06:34:42.185Z,10.34
2018-10-12T06:37:11.373Z,10.37
2018-10-12T06:39:40.495Z,10.41
2018-10-12T06:42:09.683Z,10.52
2018-10-12T06:44:38.844Z,10.54
2018-10-12T06:47:08.589Z,10.59
2018-10-12T06:49:37.771Z,10.66
2018-10-12T06:52:06.933Z,10.79
2018-10-12T06:54:36.103Z,10.79
2018-10-12T06:57:05.287Z,10.86
2018-10-12T06:59:34.557Z,10.96
2018-10-12T07:02:03.840Z,11.08
2018-10-12T07:04:33.110Z,11.19
2018-10-12T07:07:02.335Z,11.32
2018-10-12T07:09:31.476Z,11.36
2018-10-12T07:12:00.617Z,11.49
2018-10-12T07:14:30.033Z,11.56
2018-10-12T07:16:59.210Z,11.68
2018-10-12T07:19:28.390Z,11.73
2018-10-12T07:21:57.577Z,11.85
2018-10-12T07:24:26.682Z,11.92
2018-10-12T07:26:55.784Z,12.00
2018-10-12T07:29:25.227Z,12.22
2018-10-12T07:31:54.127Z,12.58
2018-10-12T07:34:23.310Z,12.96
2018-10-12T07:36:52.535Z,13.35
2018-10-12T07:39:21.704Z,13.55
2018-10-12T07:41:51.187Z,13.83
2018-10-12T07:44:20.386Z,13.99
2018-10-12T07:46:49.653Z,14.17
2018-10-12T07:49:18.856Z,14.34
2018-10-12T07:51:48.027Z,14.50
2018-10-12T07:54:17.165Z,14.55
2018-10-12T07:56:46.364Z,14.64
2018-10-12T07:59:15.621Z,14.74
2018-10-12T08:01:44.817Z,14.77
2018-10-12T08:04:13.957Z,15.02
2018-10-12T08:06:43.184Z,15.34
2018-10-12T08:09:12.385Z,15.62
2018-10-12T08:11:41.536Z,15.65
2018-10-12T08:14:10.821Z,15.82
2018-10-12T08:16:40.024Z,16.08
2018-10-12T08:19:11.752Z,16.18
2018-10-12T08:21:40.902Z,16.30
2018-10-12T08:24:10.042Z,16.38
2018-10-12T08:26:39.208Z,16.56
2018-10-12T08:29:08.328Z,16.69
2018-10-12T08:31:37.612Z,16.89
2018-10-12T08:34:06.781Z,17.01
2018-10-12T08:36:36.017Z,17.14
2018-10-12T08:39:08.347Z,17.20
2018-10-12T08:41:37.663Z,17.33
2018-10-12T08:44:06.852Z,17.37
2018-10-12T08:46:36.108Z,17.34
2018-10-12T08:49:06.025Z,17.36
2018-10-12T08:51:35.820Z,17.36
2018-10-12T08:54:04.996Z,17.45
2018-10-12T08:56:34.139Z,17.57
2018-10-12T08:59:03.333Z,17.64
2018-10-12T09:01:32.522Z,17.80
2018-10-12T09:04:01.678Z,17.83
2018-10-12T09:06:30.817Z,17.92
2018-10-12T09:09:00.717Z,18.10
2018-10-12T09:11:29.901Z,18.26
2018-10-12T09:13:59.109Z,18.39
2018-10-12T09:16:28.351Z,18.56
2018-10-12T09:18:57.452Z,18.67
2018-10-12T09:21:26.601Z,18.66
2018-10-12T09:23:55.701Z,18.69
2018-10-12T09:26:24.875Z,18.83
2018-10-12T09:28:54.180Z,18.88
2018-10-12T09:31:23.336Z,18.91
2018-10-12T09:33:52.672Z,18.95
2018-10-12T09:36:21.893Z,18.95
2018-10-12T09:38:51.049Z,19.00
2018-10-12T09:41:20.267Z,19.20
2018-10-12T09:43:49.403Z,19.27
2018-10-12T09:46:18.591Z,19.37
2018-10-12T09:48:48.928Z,19.41
2018-10-12T09:51:18.062Z,19.50
2018-10-12T09:53:47.193Z,19.59
2018-10-12T09:56:16.413Z,19.68
2018-10-12T09:58:45.583Z,19.74
2018-10-12T10:01:19.832Z,19.89
2018-10-12T10:03:54.239Z,19.98
2018-10-12T10:06:23.403Z,20.10
2018-10-12T10:08:52.600Z,20.19
2018-10-12T10:11:21.738Z,20.32
2018-10-12T10:13:51.258Z,20.29
2018-10-12T10:16:20.456Z,20.44
2018-10-12T10:18:49.604Z,20.58
2018-10-12T10:21:19.265Z,20.70
2018-10-12T10:23:48.686Z,20.80
2018-10-12T10:26:17.848Z,20.83
2018-10-12T10:28:47.137Z,20.91
2018-10-12T10:31:16.312Z,21.02
2018-10-12T10:33:45.532Z,21.15
2018-10-12T10:36:14.703Z,21.13
2018-10-12T10:38:43.886Z,21.18
2018-10-12T10:41:13.000Z,21.22
2018-10-12T10:43:42.184Z,21.30
2018-10-12T10:46:11.381Z,21.47
2018-10-12T10:48:40.477Z,21.51
2018-10-12T10:51:09.760Z,21.55
2018-10-12T10:53:39.063Z,21.60
2018-10-12T10:56:08.297Z,21.73
2018-10-12T10:58:37.736Z,21.82
2018-10-12T11:01:06.960Z,21.86
2018-10-12T11:03:36.081Z,21.88
2018-10-12T11:06:05.225Z,22.02
2018-10-12T11:08:34.416Z,22.07
2018-10-12T11:11:03.597Z,22.14
2018-10-12T11:13:32.700Z,22.10
2018-10-12T11:16:01.970Z,22.16
2018-10-12T11:18:31.107Z,22.24
2018-10-12T11:21:00.283Z,22.43
2018-10-12T11:23:29.462Z,22.46
2018-10-12T11:25:58.692Z,22.54
2018-10-12T11:28:27.898Z,22.55
2018-10-12T11:30:57.136Z,22.52
2018-10-12T11:33:26.249Z,22.62
2018-10-12T11:35:55.411Z,22.67
2018-10-12T11:38:25.711Z,22.82
2018-10-12T11:40:54.846Z,22.89
2018-10-12T11:43:34.332Z,22.88
2018-10-12T11:46:03.525Z,22.95
2018-10-12T11:48:32.756Z,23.09
2018-10-12T11:51:02.205Z,23.22
2018-10-12T11:53:31.596Z,23.34
2018-10-12T11:56:00.754Z,23.27
2018-10-12T11:58:29.912Z,23.29
2018-10-12T12:00:59.153Z,23.41
2018-10-12T12:03:28.290Z,23.51
2018-10-12T12:05:57.482Z,23.53
2018-10-12T12:08:26.608Z,23.55
2018-10-12T12:10:55.740Z,23.46
2018-10-12T12:13:25.327Z,23.52
2018-10-12T12:15:54.492Z,23.64
2018-10-12T12:18:30.325Z,23.70
2018-10-12T12:20:59.498Z,23.87
2018-10-12T12:23:28.588Z,24.05
2018-10-12T12:25:57.756Z,23.99
2018-10-12T12:28:27.018Z,24.02
2018-10-12T12:30:56.137Z,24.00
2018-10-12T12:33:25.336Z,24.05
2018-10-12T12:35:54.859Z,24.08
2018-10-12T12:38:23.606Z,24.22
2018-10-12T12:40:52.800Z,24.39
2018-10-12T12:43:21.905Z,24.36
2018-10-12T12:45:51.012Z,24.25
2018-10-12T12:48:20.535Z,24.34
2018-10-12T12:50:49.361Z,24.44
2018-10-12T12:53:18.549Z,24.48
2018-10-12T12:55:47.729Z,24.52
2018-10-12T12:58:16.845Z,24.53
2018-10-12T13:00:46.151Z,24.53
2018-10-12T13:03:15.687Z,24.45
2018-10-12T13:05:44.829Z,24.44
2018-10-12T13:08:14.032Z,24.44
2018-10-12T13:10:43.156Z,24.56
2018-10-12T13:13:12.287Z,24.63
2018-10-12T13:15:41.423Z,24.58
2018-10-12T13:18:10.607Z,24.58
2018-10-12T13:20:39.692Z,24.59
2018-10-12T13:23:08.804Z,24.52
2018-10-12T13:25:38.037Z,24.55
2018-10-12T13:28:07.182Z,24.58
2018-10-12T13:30:36.329Z,24.57
2018-10-12T13:33:05.501Z,24.62
2018-10-12T13:35:35.053Z,24.57
2018-10-12T13:38:04.269Z,24.54
2018-10-12T13:40:33.404Z,24.52
2018-10-12T13:43:02.556Z,24.53
2018-10-12T13:45:31.669Z,24.56
2018-10-12T13:48:00.757Z,24.54
2018-10-12T13:50:30.318Z,24.45
2018-10-12T13:52:59.467Z,24.36
2018-10-12T13:55:28.921Z,24.39
2018-10-12T13:57:58.068Z,24.26
2018-10-12T14:00:27.216Z,24.21
2018-10-12T14:02:56.429Z,24.21
2018-10-12T14:05:25.696Z,24.16
2018-10-12T14:07:54.900Z,24.15
2018-10-12T14:10:24.195Z,24.15
2018-10-12T14:12:53.269Z,24.09
2018-10-12T14:15:22.676Z,24.01
2018-10-12T14:17:51.815Z,23.95
2018-10-12T14:20:20.984Z,23.97
2018-10-12T14:22:50.148Z,23.93
2018-10-12T14:25:19.428Z,23.77
2018-10-12T14:27:48.517Z,23.70
2018-10-12T14:30:17.692Z,23.58
2018-10-12T14:32:47.616Z,23.56
2018-10-12T14:35:17.069Z,23.49
2018-10-12T14:37:46.297Z,23.39
2018-10-12T14:40:15.459Z,23.33
2018-10-12T14:42:44.651Z,23.35
2018-10-12T14:45:13.839Z,23.36
2018-10-12T14:47:43.045Z,23.38
2018-10-12T14:50:12.290Z,23.33
2018-10-12T14:52:41.671Z,23.33
2018-10-12T14:55:10.843Z,23.32
2018-10-12T14:57:40.001Z,23.18
2018-10-12T15:00:09.883Z,23.12
2018-10-12T15:02:39.020Z,23.05
2018-10-12T15:05:08.242Z,23.03
2018-10-12T15:07:37.452Z,23.03
2018-10-12T15:10:06.563Z,22.99
2018-10-12T15:12:35.838Z,22.92
2018-10-12T15:15:19.016Z,22.86
2018-10-12T15:17:49.127Z,22.73
2018-10-12T15:20:18.355Z,22.71
2018-10-12T15:22:47.532Z,22.67
2018-10-12T15:25:16.706Z,22.57
2018-10-12T15:27:46.039Z,22.49
2018-10-12T15:30:15.785Z,22.46
2018-10-12T15:32:45.004Z,22.38
2018-10-12T15:35:14.168Z,22.27
2018-10-12T15:37:43.983Z,22.16
2018-10-12T15:40:13.129Z,21.98
2018-10-12T15:42:42.309Z,21.88
2018-10-12T15:45:11.432Z,21.74
2018-10-12T15:47:40.603Z,21.61
2018-10-12T15:50:10.286Z,21.46
2018-10-12T15:52:40.405Z,21.35
2018-10-12T15:55:10.164Z,21.21
2018-10-12T15:57:40.157Z,21.08
2018-10-12T16:00:09.852Z,20.97
2018-10-12T16:02:39.841Z,20.85
2018-10-12T16:05:09.643Z,20.77
2018-10-12T16:07:39.329Z,20.63
2018-10-12T16:10:09.064Z,20.54
2018-10-12T16:12:38.983Z,20.43
2018-10-12T16:15:08.169Z,20.32
2018-10-12T16:17:37.325Z,20.21
2018-10-12T16:20:06.603Z,20.10
2018-10-12T16:22:35.801Z,19.99
2018-10-12T16:25:16.173Z,19.88
2018-10-12T16:27:45.374Z,19.76
2018-10-12T16:30:14.511Z,19.66
2018-10-12T16:32:43.758Z,19.51
2018-10-12T16:35:12.932Z,19.41
2018-10-12T16:37:42.039Z,19.29
2018-10-12T16:40:11.154Z,19.22
2018-10-12T16:42:40.331Z,19.14
2018-10-12T16:45:09.468Z,19.01
2018-10-12T16:47:38.611Z,18.90
2018-10-12T16:50:07.853Z,18.82
2018-10-12T16:52:37.019Z,18.75
2018-10-12T16:55:06.191Z,18.72
2018-10-12T16:57:36.067Z,18.58
2018-10-12T17:00:05.943Z,18.53
2018-10-12T17:02:35.086Z,18.43
2018-10-12T17:05:04.341Z,18.35
2018-10-12T17:07:33.496Z,18.31
2018-10-12T17:10:02.640Z,18.19
2018-10-12T17:12:32.884Z,18.15
2018-10-12T17:15:02.028Z,18.08
2018-10-12T17:17:31.760Z,18.01
2018-10-12T17:20:00.946Z,17.94
2018-10-12T17:22:30.120Z,17.89
2018-10-12T17:24:59.409Z,17.83
2018-10-12T17:27:28.521Z,17.73
2018-10-12T17:29:57.655Z,17.62
2018-10-12T17:32:26.865Z,17.57
2018-10-12T17:34:56.282Z,17.56
2018-10-12T17:37:25.499Z,17.51
2018-10-12T17:39:54.717Z,17.41
2018-10-12T17:42:24.832Z,17.35
2018-10-12T17:44:54.089Z,17.27
2018-10-12T17:47:23.287Z,17.24
2018-10-12T17:49:52.564Z,17.18
2018-10-12T17:52:21.870Z,17.12
2018-10-12T17:54:51.101Z,17.11
2018-10-12T17:57:22.449Z,17.07
2018-10-12T17:59:52.245Z,16.98
2018-10-12T18:02:21.561Z,16.98
2018-10-12T18:04:50.692Z,16.98
2018-10-12T18:07:19.893Z,16.94
2018-10-12T18:09:49.076Z,16.91
2018-10-12T18:12:18.167Z,16.85
2018-10-12T18:14:47.343Z,16.74
2018-10-12T18:17:16.485Z,16.66
2018-10-12T18:19:46.434Z,16.62
2018-10-12T18:22:15.676Z,16.57
2018-10-12T18:24:44.814Z,16.54
2018-10-12T18:27:13.967Z,16.50
2018-10-12T18:29:43.172Z,16.48
2018-10-12T18:32:12.349Z,16.45
2018-10-12T18:34:41.505Z,16.42
2018-10-12T18:37:10.684Z,16.41
2018-10-12T18:39:39.773Z,16.36
2018-10-12T18:42:08.933Z,16.29
2018-10-12T18:44:38.128Z,16.27
2018-10-12T18:47:07.435Z,16.27
2018-10-12T18:49:36.649Z,16.23
2018-10-12T18:52:06.691Z,16.20
2018-10-12T18:54:35.873Z,16.19
2018-10-12T18:57:05.125Z,16.19
2018-10-12T18:59:34.354Z,16.16
2018-10-12T19:02:03.469Z,16.13
2018-10-12T19:04:33.118Z,16.18
2018-10-12T19:07:02.363Z,16.15
2018-10-12T19:09:31.513Z,16.09
2018-10-12T19:12:00.667Z,16.04
2018-10-12T19:14:29.836Z,16.02
2018-10-12T19:16:58.978Z,15.98
2018-10-12T19:19:28.180Z,15.98
2018-10-12T19:21:57.271Z,15.92
2018-10-12T19:24:26.451Z,15.90
2018-10-12T19:26:55.630Z,15.87
2018-10-12T19:29:24.766Z,15.82
2018-10-12T19:31:53.986Z,15.83
2018-10-12T19:34:23.122Z,15.90
2018-10-12T19:36:52.317Z,15.90
2018-10-12T19:39:21.532Z,15.83
2018-10-12T19:41:50.747Z,15.83
2018-10-12T19:44:19.936Z,15.79
2018-10-12T19:46:49.091Z,15.77
2018-10-12T19:49:18.200Z,15.77
2018-10-12T19:51:47.553Z,15.77
2018-10-12T19:54:16.701Z,15.75
2018-10-12T19:56:45.877Z,15.74
2018-10-12T19:59:15.198Z,15.70
2018-10-12T20:01:44.339Z,15.71
2018-10-12T20:04:13.460Z,15.73
2018-10-12T20:06:42.732Z,15.75
2018-10-12T20:09:12.513Z,15.69
2018-10-12T20:11:42.256Z,15.76
2018-10-12T20:14:11.396Z,15.75
2018-10-12T20:16:40.567Z,15.76
2018-10-12T20:19:10.041Z,15.75
2018-10-12T20:21:39.207Z,15.80
2018-10-12T20:24:08.811Z,15.84
2018-10-12T20:26:37.931Z,15.79
2018-10-12T20:29:07.105Z,15.85
2018-10-12T20:31:36.471Z,15.83
2018-10-12T20:34:05.613Z,15.79
2018-10-12T20:36:34.760Z,15.77
2018-10-12T20:39:04.841Z,15.78
2018-10-12T20:41:33.974Z,15.76
2018-10-12T20:44:03.109Z,15.78
2018-10-12T20:46:32.343Z,15.81
2018-10-12T20:49:01.568Z,15.74
2018-10-12T20:51:30.768Z,15.70
2018-10-12T20:54:00.990Z,15.66
2018-10-12T20:56:30.144Z,15.64
2018-10-12T20:58:59.309Z,15.58
2018-10-12T21:01:28.446Z,15.57
2018-10-12T21:03:57.642Z,15.53
2018-10-12T21:06:26.834Z,15.47
2018-10-12T21:08:56.029Z,15.46
2018-10-12T21:11:25.822Z,15.44
2018-10-12T21:13:56.417Z,15.38
2018-10-12T21:16:25.670Z,15.34
2018-10-12T21:18:54.816Z,15.34
2018-10-12T21:21:24.008Z,15.31
2018-10-12T21:23:53.333Z,15.30
2018-10-12T21:26:22.666Z,15.29
2018-10-12T21:28:51.800Z,15.27
2018-10-12T21:31:21.032Z,15.28
2018-10-12T21:33:50.186Z,15.27
2018-10-12T21:36:19.354Z,15.25
2018-10-12T21:38:48.686Z,15.23
2018-10-12T21:41:17.891Z,15.18
2018-10-12T21:43:47.029Z,15.18
2018-10-12T21:46:16.219Z,15.17
2018-10-12T21:48:45.434Z,15.21
2018-10-12T21:51:14.553Z,15.22
2018-10-12T21:53:43.735Z,15.19
2018-10-12T21:56:12.944Z,15.18
2018-10-12T21:58:42.152Z,15.15
2018-10-12T22:01:11.295Z,15.13
2018-10-12T22:03:46.131Z,15.12
2018-10-12T22:06:15.324Z,15.09
2018-10-12T22:08:49.762Z,15.08
2018-10-12T22:11:18.896Z,15.04
2018-10-12T22:13:48.164Z,15.00
2018-10-12T22:16:17.257Z,15.03
2018-10-12T22:18:46.412Z,15.01
2018-10-12T22:21:15.568Z,15.02
2018-10-12T22:23:44.697Z,15.02
2018-10-12T22:26:13.961Z,15.00
2018-10-12T22:28:43.156Z,14.99
2018-10-12T22:31:12.288Z,15.02
2018-10-12T22:33:41.583Z,15.09
2018-10-12T22:36:10.932Z,15.08
2018-10-12T22:38:40.085Z,15.08
2018-10-12T22:41:09.221Z,15.10
2018-10-12T22:43:38.428Z,15.09
2018-10-12T22:46:07.620Z,15.09
2018-10-12T22:48:36.801Z,15.08
2018-10-12T22:51:06.266Z,15.09
2018-10-12T22:53:35.408Z,15.09
2018-10-12T22:56:04.678Z,15.09
2018-10-12T22:58:33.959Z,15.11
2018-10-12T23:01:03.141Z,15.13
2018-10-12T23:03:32.347Z,15.15
2018-10-12T23:06:01.493Z,15.22
2018-10-12T23:08:30.607Z,15.17
2018-10-12T23:10:59.786Z,15.15
2018-10-12T23:13:28.902Z,15.19
2018-10-12T23:15:58.140Z,15.17
2018-10-12T23:18:27.370Z,15.16
2018-10-12T23:20:56.530Z,15.15
2018-10-12T23:23:25.740Z,15.14
2018-10-12T23:25:55.004Z,15.15
2018-10-12T23:28:24.416Z,15.15
2018-10-12T23:30:53.848Z,15.14
2018-10-12T23:33:34.126Z,15.14
2018-10-12T23:36:03.336Z,15.18
2018-10-12T23:38:32.582Z,15.17
2018-10-12T23:41:01.746Z,15.14
2018-10-12T23:43:30.910Z,15.13
2018-10-12T23:46:00.124Z,15.09
2018-10-12T23:48:29.345Z,15.14
2018-10-12T23:50:58.491Z,15.10
2018-10-12T23:53:27.617Z,15.09
2018-10-12T23:55:56.902Z,15.10
2018-10-12T23:58:26.082Z,15.03
